sensor_id;sensor_type;location;lat;lon;timestamp;P1;durP1;ratioP1;P2;durP2;ratioP2
46363;SDS011;32071;49.036;9.344;2024-01-15T00:01:47;39.50;;;14.03;;
46363;SDS011;32071;49.036;9.344;2024-01-15T00:04:13;36.83;;;13.30;;
46363;SDS011;32071;49.036;9.344;2024-01-15T00:06:38;34.63;;;13.60;;
46363;SDS011;32071;49.036;9.344;2024-01-15T00:09:04;35.17;;;13.00;;
46363;SDS011;32071;49.036;9.344;2024-01-15T00:11:31;27.57;;;12.70;;
46363;SDS011;32071;49.036;9.344;2024-01-15T00:13:57;33.40;;;14.40;;
46363;SDS011;32071;49.036;9.344;2024-01-15T00:16:23;38.40;;;14.83;;
46363;SDS011;32071;49.036;9.344;2024-01-15T00:18:49;42.97;;;13.50;;
46363;SDS011;32071;49.036;9.344;2024-01-15T00:21:16;35.33;;;14.40;;
46363;SDS011;32071;49.036;9.344;2024-01-15T00:23:44;37.77;;;13.80;;
46363;SDS011;32071;49.036;9.344;2024-01-15T00:26:10;38.00;;;14.83;;
46363;SDS011;32071;49.036;9.344;2024-01-15T00:28:36;33.10;;;14.83;;
46363;SDS011;32071;49.036;9.344;2024-01-15T00:31:04;39.47;;;15.70;;
46363;SDS011;32071;49.036;9.344;2024-01-15T00:33:30;34.27;;;13.57;;
46363;SDS011;32071;49.036;9.344;2024-01-15T00:35:55;33.87;;;12.67;;
46363;SDS011;32071;49.036;9.344;2024-01-15T00:38:21;32.43;;;12.10;;
46363;SDS011;32071;49.036;9.344;2024-01-15T00:40:47;31.37;;;12.43;;
46363;SDS011;32071;49.036;9.344;2024-01-15T00:43:12;26.17;;;11.20;;
46363;SDS011;32071;49.036;9.344;2024-01-15T00:45:38;31.10;;;12.00;;
46363;SDS011;32071;49.036;9.344;2024-01-15T00:48:04;31.50;;;11.60;;
46363;SDS011;32071;49.036;9.344;2024-01-15T00:50:30;33.27;;;11.93;;
46363;SDS011;32071;49.036;9.344;2024-01-15T00:52:55;30.50;;;12.60;;
46363;SDS011;32071;49.036;9.344;2024-01-15T00:55:21;29.93;;;12.10;;
46363;SDS011;32071;49.036;9.344;2024-01-15T00:57:47;28.43;;;11.60;;
46363;SDS011;32071;49.036;9.344;2024-01-15T01:00:12;34.40;;;12.73;;
46363;SDS011;32071;49.036;9.344;2024-01-15T01:02:38;36.13;;;13.40;;
46363;SDS011;32071;49.036;9.344;2024-01-15T01:05:04;27.37;;;11.20;;
46363;SDS011;32071;49.036;9.344;2024-01-15T01:07:30;30.90;;;12.70;;
46363;SDS011;32071;49.036;9.344;2024-01-15T01:09:55;29.33;;;12.60;;
46363;SDS011;32071;49.036;9.344;2024-01-15T01:12:21;33.30;;;12.60;;
46363;SDS011;32071;49.036;9.344;2024-01-15T01:14:46;27.53;;;11.17;;
46363;SDS011;32071;49.036;9.344;2024-01-15T01:17:12;32.10;;;12.77;;
46363;SDS011;32071;49.036;9.344;2024-01-15T01:19:37;25.83;;;12.10;;
46363;SDS011;32071;49.036;9.344;2024-01-15T01:22:03;29.83;;;11.50;;
46363;SDS011;32071;49.036;9.344;2024-01-15T01:24:29;34.77;;;13.97;;
46363;SDS011;32071;49.036;9.344;2024-01-15T01:26:54;31.00;;;12.73;;
46363;SDS011;32071;49.036;9.344;2024-01-15T01:29:20;29.03;;;12.30;;
46363;SDS011;32071;49.036;9.344;2024-01-15T01:31:46;29.70;;;12.90;;
46363;SDS011;32071;49.036;9.344;2024-01-15T01:34:15;27.40;;;11.37;;
46363;SDS011;32071;49.036;9.344;2024-01-15T01:36:41;27.90;;;11.70;;
46363;SDS011;32071;49.036;9.344;2024-01-15T01:39:07;28.03;;;12.70;;
46363;SDS011;32071;49.036;9.344;2024-01-15T01:41:33;29.70;;;11.80;;
46363;SDS011;32071;49.036;9.344;2024-01-15T01:43:58;27.97;;;12.23;;
46363;SDS011;32071;49.036;9.344;2024-01-15T01:46:24;33.10;;;13.70;;
46363;SDS011;32071;49.036;9.344;2024-01-15T01:48:53;30.53;;;14.07;;
46363;SDS011;32071;49.036;9.344;2024-01-15T01:51:20;22.20;;;10.70;;
46363;SDS011;32071;49.036;9.344;2024-01-15T01:53:47;29.13;;;12.53;;
46363;SDS011;32071;49.036;9.344;2024-01-15T01:56:15;31.30;;;13.87;;
46363;SDS011;32071;49.036;9.344;2024-01-15T01:58:43;31.33;;;13.23;;
46363;SDS011;32071;49.036;9.344;2024-01-15T02:01:09;32.97;;;12.40;;
46363;SDS011;32071;49.036;9.344;2024-01-15T02:03:36;32.13;;;11.40;;
46363;SDS011;32071;49.036;9.344;2024-01-15T02:06:03;29.70;;;13.57;;
46363;SDS011;32071;49.036;9.344;2024-01-15T02:08:29;25.70;;;11.63;;
46363;SDS011;32071;49.036;9.344;2024-01-15T02:10:55;28.43;;;12.23;;
46363;SDS011;32071;49.036;9.344;2024-01-15T02:13:20;32.13;;;11.80;;
46363;SDS011;32071;49.036;9.344;2024-01-15T02:15:46;28.60;;;11.43;;
46363;SDS011;32071;49.036;9.344;2024-01-15T02:18:11;26.50;;;10.97;;
46363;SDS011;32071;49.036;9.344;2024-01-15T02:20:37;33.73;;;11.90;;
46363;SDS011;32071;49.036;9.344;2024-01-15T02:23:15;26.80;;;11.00;;
46363;SDS011;32071;49.036;9.344;2024-01-15T02:25:41;23.80;;;10.93;;
46363;SDS011;32071;49.036;9.344;2024-01-15T02:28:10;27.00;;;11.30;;
46363;SDS011;32071;49.036;9.344;2024-01-15T02:30:37;26.23;;;11.80;;
46363;SDS011;32071;49.036;9.344;2024-01-15T02:33:04;22.93;;;10.77;;
46363;SDS011;32071;49.036;9.344;2024-01-15T02:35:30;26.17;;;11.10;;
46363;SDS011;32071;49.036;9.344;2024-01-15T02:37:55;28.30;;;11.37;;
46363;SDS011;32071;49.036;9.344;2024-01-15T02:40:21;22.30;;;10.97;;
46363;SDS011;32071;49.036;9.344;2024-01-15T02:42:46;26.90;;;10.60;;
46363;SDS011;32071;49.036;9.344;2024-01-15T02:45:12;37.87;;;12.10;;
46363;SDS011;32071;49.036;9.344;2024-01-15T02:47:38;25.60;;;10.57;;
46363;SDS011;32071;49.036;9.344;2024-01-15T02:50:03;26.47;;;10.70;;
46363;SDS011;32071;49.036;9.344;2024-01-15T02:52:29;24.63;;;10.80;;
46363;SDS011;32071;49.036;9.344;2024-01-15T02:54:55;28.40;;;10.57;;
46363;SDS011;32071;49.036;9.344;2024-01-15T02:57:20;19.20;;;9.40;;
46363;SDS011;32071;49.036;9.344;2024-01-15T02:59:46;30.03;;;11.87;;
46363;SDS011;32071;49.036;9.344;2024-01-15T03:02:11;25.50;;;10.90;;
46363;SDS011;32071;49.036;9.344;2024-01-15T03:04:42;21.20;;;9.70;;
46363;SDS011;32071;49.036;9.344;2024-01-15T03:07:08;19.57;;;9.97;;
46363;SDS011;32071;49.036;9.344;2024-01-15T03:09:34;24.77;;;10.23;;
46363;SDS011;32071;49.036;9.344;2024-01-15T03:11:59;21.53;;;9.63;;
46363;SDS011;32071;49.036;9.344;2024-01-15T03:14:25;22.13;;;10.53;;
46363;SDS011;32071;49.036;9.344;2024-01-15T03:16:51;21.17;;;10.20;;
46363;SDS011;32071;49.036;9.344;2024-01-15T03:19:17;27.70;;;10.40;;
46363;SDS011;32071;49.036;9.344;2024-01-15T03:21:43;24.60;;;10.13;;
46363;SDS011;32071;49.036;9.344;2024-01-15T03:24:08;26.17;;;11.20;;
46363;SDS011;32071;49.036;9.344;2024-01-15T03:26:34;25.40;;;10.53;;
46363;SDS011;32071;49.036;9.344;2024-01-15T03:28:59;19.23;;;9.40;;
46363;SDS011;32071;49.036;9.344;2024-01-15T03:31:25;28.10;;;10.73;;
46363;SDS011;32071;49.036;9.344;2024-01-15T03:33:50;23.30;;;10.40;;
46363;SDS011;32071;49.036;9.344;2024-01-15T03:36:16;24.70;;;10.90;;
46363;SDS011;32071;49.036;9.344;2024-01-15T03:38:41;20.27;;;10.17;;
46363;SDS011;32071;49.036;9.344;2024-01-15T03:41:07;24.70;;;9.40;;
46363;SDS011;32071;49.036;9.344;2024-01-15T03:43:33;22.37;;;10.80;;
46363;SDS011;32071;49.036;9.344;2024-01-15T03:45:58;19.33;;;10.33;;
46363;SDS011;32071;49.036;9.344;2024-01-15T03:48:24;24.30;;;11.17;;
46363;SDS011;32071;49.036;9.344;2024-01-15T03:50:49;19.50;;;10.07;;
46363;SDS011;32071;49.036;9.344;2024-01-15T03:53:15;22.67;;;9.93;;
46363;SDS011;32071;49.036;9.344;2024-01-15T03:55:42;25.23;;;9.87;;
46363;SDS011;32071;49.036;9.344;2024-01-15T03:58:07;25.13;;;10.33;;
46363;SDS011;32071;49.036;9.344;2024-01-15T04:00:33;24.30;;;10.80;;
46363;SDS011;32071;49.036;9.344;2024-01-15T04:02:59;21.07;;;8.60;;
46363;SDS011;32071;49.036;9.344;2024-01-15T04:05:25;23.50;;;9.73;;
46363;SDS011;32071;49.036;9.344;2024-01-15T04:07:51;25.73;;;10.00;;
46363;SDS011;32071;49.036;9.344;2024-01-15T04:10:16;20.57;;;10.10;;
46363;SDS011;32071;49.036;9.344;2024-01-15T04:12:42;21.80;;;9.50;;
46363;SDS011;32071;49.036;9.344;2024-01-15T04:15:08;19.37;;;8.87;;
46363;SDS011;32071;49.036;9.344;2024-01-15T04:17:33;23.23;;;10.57;;
46363;SDS011;32071;49.036;9.344;2024-01-15T04:19:59;26.10;;;11.00;;
46363;SDS011;32071;49.036;9.344;2024-01-15T04:22:25;25.43;;;10.27;;
46363;SDS011;32071;49.036;9.344;2024-01-15T04:24:51;16.47;;;8.70;;
46363;SDS011;32071;49.036;9.344;2024-01-15T04:27:17;26.47;;;11.30;;
46363;SDS011;32071;49.036;9.344;2024-01-15T04:29:42;22.13;;;9.17;;
46363;SDS011;32071;49.036;9.344;2024-01-15T04:32:09;18.80;;;9.53;;
46363;SDS011;32071;49.036;9.344;2024-01-15T04:34:35;21.00;;;9.97;;
46363;SDS011;32071;49.036;9.344;2024-01-15T04:37:00;18.97;;;9.13;;
46363;SDS011;32071;49.036;9.344;2024-01-15T04:39:26;16.40;;;8.47;;
46363;SDS011;32071;49.036;9.344;2024-01-15T04:41:52;18.20;;;9.23;;
46363;SDS011;32071;49.036;9.344;2024-01-15T04:44:18;29.07;;;11.17;;
46363;SDS011;32071;49.036;9.344;2024-01-15T04:46:43;25.13;;;10.93;;
46363;SDS011;32071;49.036;9.344;2024-01-15T04:49:10;20.00;;;9.30;;
46363;SDS011;32071;49.036;9.344;2024-01-15T04:51:36;18.47;;;9.10;;
46363;SDS011;32071;49.036;9.344;2024-01-15T04:54:01;23.97;;;9.90;;
46363;SDS011;32071;49.036;9.344;2024-01-15T04:56:27;29.20;;;11.10;;
46363;SDS011;32071;49.036;9.344;2024-01-15T04:58:53;24.80;;;9.37;;
46363;SDS011;32071;49.036;9.344;2024-01-15T05:01:18;24.73;;;10.37;;
46363;SDS011;32071;49.036;9.344;2024-01-15T05:03:44;22.93;;;10.90;;
46363;SDS011;32071;49.036;9.344;2024-01-15T05:06:09;23.03;;;10.50;;
46363;SDS011;32071;49.036;9.344;2024-01-15T05:08:35;21.93;;;9.93;;
46363;SDS011;32071;49.036;9.344;2024-01-15T05:11:00;25.53;;;9.90;;
46363;SDS011;32071;49.036;9.344;2024-01-15T05:13:26;20.33;;;10.10;;
46363;SDS011;32071;49.036;9.344;2024-01-15T05:15:52;21.30;;;9.77;;
46363;SDS011;32071;49.036;9.344;2024-01-15T05:18:17;23.17;;;10.63;;
46363;SDS011;32071;49.036;9.344;2024-01-15T05:20:43;20.63;;;8.70;;
46363;SDS011;32071;49.036;9.344;2024-01-15T05:23:09;22.33;;;9.63;;
46363;SDS011;32071;49.036;9.344;2024-01-15T05:25:34;17.93;;;8.63;;
46363;SDS011;32071;49.036;9.344;2024-01-15T05:28:00;20.00;;;9.30;;
46363;SDS011;32071;49.036;9.344;2024-01-15T05:30:26;19.60;;;8.67;;
46363;SDS011;32071;49.036;9.344;2024-01-15T05:32:52;20.70;;;9.07;;
46363;SDS011;32071;49.036;9.344;2024-01-15T05:35:17;20.20;;;10.80;;
46363;SDS011;32071;49.036;9.344;2024-01-15T05:37:44;17.60;;;9.57;;
46363;SDS011;32071;49.036;9.344;2024-01-15T05:40:11;17.83;;;8.37;;
46363;SDS011;32071;49.036;9.344;2024-01-15T05:42:38;26.07;;;11.53;;
46363;SDS011;32071;49.036;9.344;2024-01-15T05:45:04;21.73;;;9.37;;
46363;SDS011;32071;49.036;9.344;2024-01-15T05:47:30;24.17;;;10.00;;
46363;SDS011;32071;49.036;9.344;2024-01-15T05:49:56;23.60;;;11.07;;
46363;SDS011;32071;49.036;9.344;2024-01-15T05:52:22;27.60;;;11.17;;
46363;SDS011;32071;49.036;9.344;2024-01-15T05:54:49;19.00;;;9.70;;
46363;SDS011;32071;49.036;9.344;2024-01-15T05:57:14;22.70;;;10.77;;
46363;SDS011;32071;49.036;9.344;2024-01-15T05:59:40;25.27;;;10.80;;
46363;SDS011;32071;49.036;9.344;2024-01-15T06:02:07;23.60;;;10.33;;
46363;SDS011;32071;49.036;9.344;2024-01-15T06:04:32;25.50;;;11.83;;
46363;SDS011;32071;49.036;9.344;2024-01-15T06:06:58;19.20;;;9.50;;
46363;SDS011;32071;49.036;9.344;2024-01-15T06:09:23;21.87;;;9.60;;
46363;SDS011;32071;49.036;9.344;2024-01-15T06:11:49;17.37;;;8.87;;
46363;SDS011;32071;49.036;9.344;2024-01-15T06:14:14;22.50;;;9.80;;
46363;SDS011;32071;49.036;9.344;2024-01-15T06:16:40;15.63;;;8.03;;
46363;SDS011;32071;49.036;9.344;2024-01-15T06:19:05;20.47;;;8.70;;
46363;SDS011;32071;49.036;9.344;2024-01-15T06:21:31;21.83;;;11.20;;
46363;SDS011;32071;49.036;9.344;2024-01-15T06:23:57;18.13;;;9.20;;
46363;SDS011;32071;49.036;9.344;2024-01-15T06:26:23;17.43;;;9.20;;
46363;SDS011;32071;49.036;9.344;2024-01-15T06:28:48;19.53;;;10.03;;
46363;SDS011;32071;49.036;9.344;2024-01-15T06:31:14;17.70;;;8.83;;
46363;SDS011;32071;49.036;9.344;2024-01-15T06:33:39;19.03;;;8.37;;
46363;SDS011;32071;49.036;9.344;2024-01-15T06:36:05;18.90;;;9.00;;
46363;SDS011;32071;49.036;9.344;2024-01-15T06:38:31;19.90;;;8.50;;
46363;SDS011;32071;49.036;9.344;2024-01-15T06:40:57;17.70;;;8.27;;
46363;SDS011;32071;49.036;9.344;2024-01-15T06:43:22;15.87;;;8.90;;
46363;SDS011;32071;49.036;9.344;2024-01-15T06:45:48;20.10;;;8.60;;
46363;SDS011;32071;49.036;9.344;2024-01-15T06:48:14;14.17;;;8.40;;
46363;SDS011;32071;49.036;9.344;2024-01-15T06:50:41;16.53;;;8.70;;
46363;SDS011;32071;49.036;9.344;2024-01-15T06:53:07;21.23;;;9.13;;
46363;SDS011;32071;49.036;9.344;2024-01-15T06:55:33;16.67;;;8.27;;
46363;SDS011;32071;49.036;9.344;2024-01-15T06:57:59;16.80;;;8.50;;
46363;SDS011;32071;49.036;9.344;2024-01-15T07:00:26;34.37;;;8.97;;
46363;SDS011;32071;49.036;9.344;2024-01-15T07:02:52;19.50;;;8.67;;
46363;SDS011;32071;49.036;9.344;2024-01-15T07:05:18;21.33;;;8.97;;
46363;SDS011;32071;49.036;9.344;2024-01-15T07:07:45;22.00;;;9.20;;
46363;SDS011;32071;49.036;9.344;2024-01-15T07:10:10;22.40;;;10.17;;
46363;SDS011;32071;49.036;9.344;2024-01-15T07:12:36;35.93;;;13.70;;
46363;SDS011;32071;49.036;9.344;2024-01-15T07:15:01;19.90;;;10.27;;
46363;SDS011;32071;49.036;9.344;2024-01-15T07:17:29;22.70;;;10.20;;
46363;SDS011;32071;49.036;9.344;2024-01-15T07:19:56;20.63;;;10.37;;
46363;SDS011;32071;49.036;9.344;2024-01-15T07:22:21;25.63;;;10.40;;
46363;SDS011;32071;49.036;9.344;2024-01-15T07:24:47;16.90;;;9.60;;
46363;SDS011;32071;49.036;9.344;2024-01-15T07:27:12;18.00;;;9.63;;
46363;SDS011;32071;49.036;9.344;2024-01-15T07:29:38;18.57;;;10.07;;
46363;SDS011;32071;49.036;9.344;2024-01-15T07:32:03;18.77;;;10.30;;
46363;SDS011;32071;49.036;9.344;2024-01-15T07:34:29;24.53;;;9.87;;
46363;SDS011;32071;49.036;9.344;2024-01-15T07:36:57;22.27;;;10.90;;
46363;SDS011;32071;49.036;9.344;2024-01-15T07:39:23;17.33;;;9.80;;
46363;SDS011;32071;49.036;9.344;2024-01-15T07:41:49;20.60;;;9.53;;
46363;SDS011;32071;49.036;9.344;2024-01-15T07:44:18;22.03;;;9.77;;
46363;SDS011;32071;49.036;9.344;2024-01-15T07:46:44;23.50;;;9.43;;
46363;SDS011;32071;49.036;9.344;2024-01-15T07:49:10;21.53;;;10.80;;
46363;SDS011;32071;49.036;9.344;2024-01-15T07:51:36;21.93;;;10.50;;
46363;SDS011;32071;49.036;9.344;2024-01-15T07:54:02;18.67;;;9.90;;
46363;SDS011;32071;49.036;9.344;2024-01-15T07:56:28;19.93;;;10.07;;
46363;SDS011;32071;49.036;9.344;2024-01-15T07:58:53;24.03;;;9.07;;
46363;SDS011;32071;49.036;9.344;2024-01-15T08:01:19;20.97;;;8.83;;
46363;SDS011;32071;49.036;9.344;2024-01-15T08:03:44;17.40;;;8.67;;
46363;SDS011;32071;49.036;9.344;2024-01-15T08:06:10;16.33;;;8.30;;
46363;SDS011;32071;49.036;9.344;2024-01-15T08:08:36;15.50;;;8.03;;
46363;SDS011;32071;49.036;9.344;2024-01-15T08:11:02;16.60;;;7.10;;
46363;SDS011;32071;49.036;9.344;2024-01-15T08:13:28;12.90;;;7.60;;
46363;SDS011;32071;49.036;9.344;2024-01-15T08:15:53;19.13;;;7.83;;
46363;SDS011;32071;49.036;9.344;2024-01-15T08:18:19;12.53;;;7.63;;
46363;SDS011;32071;49.036;9.344;2024-01-15T08:20:46;14.10;;;7.90;;
46363;SDS011;32071;49.036;9.344;2024-01-15T08:23:12;16.27;;;7.80;;
46363;SDS011;32071;49.036;9.344;2024-01-15T08:25:37;18.70;;;8.10;;
46363;SDS011;32071;49.036;9.344;2024-01-15T08:28:03;15.83;;;8.10;;
46363;SDS011;32071;49.036;9.344;2024-01-15T08:30:29;15.50;;;8.03;;
46363;SDS011;32071;49.036;9.344;2024-01-15T08:32:54;18.13;;;9.07;;
46363;SDS011;32071;49.036;9.344;2024-01-15T08:35:20;18.50;;;9.30;;
46363;SDS011;32071;49.036;9.344;2024-01-15T08:37:48;18.53;;;9.60;;
46363;SDS011;32071;49.036;9.344;2024-01-15T08:40:14;16.27;;;7.90;;
46363;SDS011;32071;49.036;9.344;2024-01-15T08:42:40;19.93;;;8.90;;
46363;SDS011;32071;49.036;9.344;2024-01-15T08:45:06;22.50;;;10.70;;
46363;SDS011;32071;49.036;9.344;2024-01-15T08:47:32;22.73;;;11.43;;
46363;SDS011;32071;49.036;9.344;2024-01-15T08:49:57;24.10;;;11.60;;
46363;SDS011;32071;49.036;9.344;2024-01-15T08:52:24;24.40;;;11.20;;
46363;SDS011;32071;49.036;9.344;2024-01-15T08:54:49;19.50;;;9.97;;
46363;SDS011;32071;49.036;9.344;2024-01-15T08:57:15;24.03;;;11.30;;
46363;SDS011;32071;49.036;9.344;2024-01-15T08:59:41;20.40;;;9.50;;
46363;SDS011;32071;49.036;9.344;2024-01-15T09:02:07;18.40;;;9.73;;
46363;SDS011;32071;49.036;9.344;2024-01-15T09:04:32;22.33;;;9.23;;
46363;SDS011;32071;49.036;9.344;2024-01-15T09:06:58;16.53;;;8.30;;
46363;SDS011;32071;49.036;9.344;2024-01-15T09:09:24;20.53;;;9.83;;
46363;SDS011;32071;49.036;9.344;2024-01-15T09:11:50;14.77;;;8.77;;
46363;SDS011;32071;49.036;9.344;2024-01-15T09:14:16;19.67;;;9.90;;
46363;SDS011;32071;49.036;9.344;2024-01-15T09:16:41;24.97;;;10.93;;
46363;SDS011;32071;49.036;9.344;2024-01-15T09:19:07;23.07;;;11.10;;
46363;SDS011;32071;49.036;9.344;2024-01-15T09:21:33;18.17;;;10.03;;
46363;SDS011;32071;49.036;9.344;2024-01-15T09:23:58;15.07;;;7.83;;
46363;SDS011;32071;49.036;9.344;2024-01-15T09:26:24;20.93;;;7.83;;
46363;SDS011;32071;49.036;9.344;2024-01-15T09:28:50;18.23;;;7.77;;
46363;SDS011;32071;49.036;9.344;2024-01-15T09:31:15;19.07;;;8.40;;
46363;SDS011;32071;49.036;9.344;2024-01-15T09:33:42;12.50;;;7.90;;
46363;SDS011;32071;49.036;9.344;2024-01-15T09:36:08;12.20;;;6.50;;
46363;SDS011;32071;49.036;9.344;2024-01-15T09:38:34;16.90;;;8.43;;
46363;SDS011;32071;49.036;9.344;2024-01-15T09:40:59;11.87;;;6.20;;
46363;SDS011;32071;49.036;9.344;2024-01-15T09:43:25;13.40;;;6.43;;
46363;SDS011;32071;49.036;9.344;2024-01-15T09:45:51;11.40;;;7.30;;
46363;SDS011;32071;49.036;9.344;2024-01-15T09:48:18;17.00;;;8.17;;
46363;SDS011;32071;49.036;9.344;2024-01-15T09:50:44;15.80;;;8.20;;
46363;SDS011;32071;49.036;9.344;2024-01-15T09:53:10;16.27;;;7.93;;
46363;SDS011;32071;49.036;9.344;2024-01-15T09:55:36;10.70;;;6.57;;
46363;SDS011;32071;49.036;9.344;2024-01-15T09:58:05;16.90;;;6.63;;
46363;SDS011;32071;49.036;9.344;2024-01-15T10:00:30;18.27;;;8.90;;
46363;SDS011;32071;49.036;9.344;2024-01-15T10:02:57;17.00;;;7.97;;
46363;SDS011;32071;49.036;9.344;2024-01-15T10:05:25;17.20;;;8.20;;
46363;SDS011;32071;49.036;9.344;2024-01-15T10:07:51;15.10;;;7.43;;
46363;SDS011;32071;49.036;9.344;2024-01-15T10:10:19;17.23;;;7.40;;
46363;SDS011;32071;49.036;9.344;2024-01-15T10:12:46;21.53;;;8.50;;
46363;SDS011;32071;49.036;9.344;2024-01-15T10:15:12;12.97;;;6.53;;
46363;SDS011;32071;49.036;9.344;2024-01-15T10:17:39;15.70;;;7.50;;
46363;SDS011;32071;49.036;9.344;2024-01-15T10:20:11;14.17;;;7.80;;
46363;SDS011;32071;49.036;9.344;2024-01-15T10:22:41;15.53;;;7.20;;
46363;SDS011;32071;49.036;9.344;2024-01-15T10:25:11;13.40;;;7.57;;
46363;SDS011;32071;49.036;9.344;2024-01-15T10:27:40;11.63;;;6.90;;
46363;SDS011;32071;49.036;9.344;2024-01-15T10:30:07;11.23;;;6.87;;
46363;SDS011;32071;49.036;9.344;2024-01-15T10:32:36;12.60;;;7.30;;
46363;SDS011;32071;49.036;9.344;2024-01-15T10:35:03;15.47;;;8.50;;
46363;SDS011;32071;49.036;9.344;2024-01-15T10:37:32;15.77;;;7.80;;
46363;SDS011;32071;49.036;9.344;2024-01-15T10:39:58;9.90;;;6.43;;
46363;SDS011;32071;49.036;9.344;2024-01-15T10:42:27;12.83;;;7.30;;
46363;SDS011;32071;49.036;9.344;2024-01-15T10:44:52;16.17;;;8.53;;
46363;SDS011;32071;49.036;9.344;2024-01-15T10:47:18;15.77;;;9.20;;
46363;SDS011;32071;49.036;9.344;2024-01-15T10:49:44;16.90;;;9.20;;
46363;SDS011;32071;49.036;9.344;2024-01-15T10:52:11;17.47;;;8.33;;
46363;SDS011;32071;49.036;9.344;2024-01-15T10:54:36;20.17;;;10.33;;
46363;SDS011;32071;49.036;9.344;2024-01-15T10:57:03;15.17;;;9.30;;
46363;SDS011;32071;49.036;9.344;2024-01-15T10:59:30;20.47;;;9.83;;
46363;SDS011;32071;49.036;9.344;2024-01-15T11:01:56;19.10;;;9.27;;
46363;SDS011;32071;49.036;9.344;2024-01-15T11:04:22;18.13;;;10.00;;
46363;SDS011;32071;49.036;9.344;2024-01-15T11:06:50;17.23;;;9.73;;
46363;SDS011;32071;49.036;9.344;2024-01-15T11:09:18;20.37;;;10.20;;
46363;SDS011;32071;49.036;9.344;2024-01-15T11:11:44;13.90;;;8.13;;
46363;SDS011;32071;49.036;9.344;2024-01-15T11:14:33;20.17;;;11.27;;
46363;SDS011;32071;49.036;9.344;2024-01-15T11:17:22;24.90;;;9.00;;
46363;SDS011;32071;49.036;9.344;2024-01-15T11:19:48;15.53;;;7.90;;
46363;SDS011;32071;49.036;9.344;2024-01-15T11:24:55;24.13;;;13.27;;
46363;SDS011;32071;49.036;9.344;2024-01-15T11:27:40;18.90;;;9.60;;
46363;SDS011;32071;49.036;9.344;2024-01-15T11:30:11;14.40;;;8.10;;
46363;SDS011;32071;49.036;9.344;2024-01-15T11:32:37;22.43;;;11.00;;
46363;SDS011;32071;49.036;9.344;2024-01-15T11:35:06;15.90;;;9.70;;
46363;SDS011;32071;49.036;9.344;2024-01-15T11:40:20;17.67;;;10.87;;
46363;SDS011;32071;49.036;9.344;2024-01-15T11:42:47;22.70;;;13.43;;
46363;SDS011;32071;49.036;9.344;2024-01-15T11:45:20;26.97;;;17.40;;
46363;SDS011;32071;49.036;9.344;2024-01-15T11:50:37;17.90;;;10.47;;
46363;SDS011;32071;49.036;9.344;2024-01-15T11:53:21;20.33;;;11.07;;
46363;SDS011;32071;49.036;9.344;2024-01-15T11:55:50;12.83;;;7.80;;
46363;SDS011;32071;49.036;9.344;2024-01-15T11:58:17;18.83;;;10.90;;
46363;SDS011;32071;49.036;9.344;2024-01-15T12:00:43;24.70;;;15.20;;
46363;SDS011;32071;49.036;9.344;2024-01-15T12:03:10;21.53;;;10.70;;
46363;SDS011;32071;49.036;9.344;2024-01-15T12:05:36;18.77;;;11.30;;
46363;SDS011;32071;49.036;9.344;2024-01-15T12:08:03;17.60;;;8.13;;
46363;SDS011;32071;49.036;9.344;2024-01-15T12:10:35;16.03;;;11.50;;
46363;SDS011;32071;49.036;9.344;2024-01-15T12:13:05;15.57;;;9.83;;
46363;SDS011;32071;49.036;9.344;2024-01-15T12:15:36;14.00;;;7.83;;
46363;SDS011;32071;49.036;9.344;2024-01-15T12:18:03;14.13;;;7.80;;
46363;SDS011;32071;49.036;9.344;2024-01-15T12:20:29;16.27;;;7.93;;
46363;SDS011;32071;49.036;9.344;2024-01-15T12:22:55;14.83;;;8.53;;
46363;SDS011;32071;49.036;9.344;2024-01-15T12:25:22;14.37;;;7.53;;
46363;SDS011;32071;49.036;9.344;2024-01-15T12:27:48;19.03;;;8.80;;
46363;SDS011;32071;49.036;9.344;2024-01-15T12:30:14;16.20;;;8.60;;
46363;SDS011;32071;49.036;9.344;2024-01-15T12:32:43;15.77;;;7.70;;
46363;SDS011;32071;49.036;9.344;2024-01-15T12:35:10;13.80;;;7.43;;
46363;SDS011;32071;49.036;9.344;2024-01-15T12:37:36;11.97;;;7.20;;
46363;SDS011;32071;49.036;9.344;2024-01-15T12:40:04;17.70;;;10.30;;
46363;SDS011;32071;49.036;9.344;2024-01-15T12:42:32;23.23;;;12.73;;
46363;SDS011;32071;49.036;9.344;2024-01-15T12:45:07;17.87;;;9.20;;
46363;SDS011;32071;49.036;9.344;2024-01-15T12:47:37;12.87;;;7.77;;
46363;SDS011;32071;49.036;9.344;2024-01-15T12:50:08;20.20;;;11.73;;
46363;SDS011;32071;49.036;9.344;2024-01-15T12:52:35;14.57;;;7.73;;
46363;SDS011;32071;49.036;9.344;2024-01-15T12:55:02;14.27;;;9.07;;
46363;SDS011;32071;49.036;9.344;2024-01-15T12:57:31;13.60;;;7.40;;
46363;SDS011;32071;49.036;9.344;2024-01-15T12:59:57;20.37;;;11.00;;
46363;SDS011;32071;49.036;9.344;2024-01-15T13:02:23;16.07;;;9.30;;
46363;SDS011;32071;49.036;9.344;2024-01-15T13:04:49;11.07;;;7.00;;
46363;SDS011;32071;49.036;9.344;2024-01-15T13:07:14;11.43;;;8.20;;
46363;SDS011;32071;49.036;9.344;2024-01-15T13:09:40;13.27;;;6.83;;
46363;SDS011;32071;49.036;9.344;2024-01-15T13:12:05;15.43;;;7.57;;
46363;SDS011;32071;49.036;9.344;2024-01-15T13:14:31;11.60;;;6.57;;
46363;SDS011;32071;49.036;9.344;2024-01-15T13:16:58;10.73;;;6.10;;
46363;SDS011;32071;49.036;9.344;2024-01-15T13:19:24;12.83;;;6.70;;
46363;SDS011;32071;49.036;9.344;2024-01-15T13:21:50;14.73;;;7.57;;
46363;SDS011;32071;49.036;9.344;2024-01-15T13:24:16;14.10;;;8.37;;
46363;SDS011;32071;49.036;9.344;2024-01-15T13:26:42;14.10;;;7.27;;
46363;SDS011;32071;49.036;9.344;2024-01-15T13:29:08;11.10;;;6.50;;
46363;SDS011;32071;49.036;9.344;2024-01-15T13:31:33;14.90;;;7.53;;
46363;SDS011;32071;49.036;9.344;2024-01-15T13:33:59;12.30;;;7.93;;
46363;SDS011;32071;49.036;9.344;2024-01-15T13:36:25;11.13;;;7.00;;
46363;SDS011;32071;49.036;9.344;2024-01-15T13:38:51;10.90;;;6.60;;
46363;SDS011;32071;49.036;9.344;2024-01-15T13:41:18;15.77;;;8.17;;
46363;SDS011;32071;49.036;9.344;2024-01-15T13:43:50;15.90;;;6.87;;
46363;SDS011;32071;49.036;9.344;2024-01-15T13:46:17;14.60;;;7.47;;
46363;SDS011;32071;49.036;9.344;2024-01-15T13:48:43;12.40;;;7.20;;
46363;SDS011;32071;49.036;9.344;2024-01-15T13:51:09;17.73;;;8.27;;
46363;SDS011;32071;49.036;9.344;2024-01-15T13:53:37;13.93;;;8.10;;
46363;SDS011;32071;49.036;9.344;2024-01-15T13:56:03;13.60;;;6.73;;
46363;SDS011;32071;49.036;9.344;2024-01-15T13:58:29;13.97;;;7.37;;
46363;SDS011;32071;49.036;9.344;2024-01-15T14:00:56;15.93;;;9.67;;
46363;SDS011;32071;49.036;9.344;2024-01-15T14:03:21;18.80;;;10.40;;
46363;SDS011;32071;49.036;9.344;2024-01-15T14:05:47;16.47;;;9.93;;
46363;SDS011;32071;49.036;9.344;2024-01-15T14:08:13;15.17;;;9.20;;
46363;SDS011;32071;49.036;9.344;2024-01-15T14:10:39;18.63;;;10.20;;
46363;SDS011;32071;49.036;9.344;2024-01-15T14:13:04;21.47;;;11.53;;
46363;SDS011;32071;49.036;9.344;2024-01-15T14:15:30;15.10;;;9.90;;
46363;SDS011;32071;49.036;9.344;2024-01-15T14:17:56;16.63;;;8.93;;
46363;SDS011;32071;49.036;9.344;2024-01-15T14:20:23;14.07;;;8.73;;
46363;SDS011;32071;49.036;9.344;2024-01-15T14:22:49;20.77;;;10.63;;
46363;SDS011;32071;49.036;9.344;2024-01-15T14:25:14;23.20;;;10.17;;
46363;SDS011;32071;49.036;9.344;2024-01-15T14:27:40;15.80;;;10.33;;
46363;SDS011;32071;49.036;9.344;2024-01-15T14:30:06;18.80;;;10.40;;
46363;SDS011;32071;49.036;9.344;2024-01-15T14:32:33;17.83;;;11.10;;